Decoded Metar for GMTT (TANGER in MOROCCO) (IATA:TNG) | Meteo·Mobile Aviation Weather
aviador You're here:

GMTT Decoded Metar

TANGER in MOROCCO
Report Time2019-02-16 18:00:00
UTC Time2019-02-16 18:20:20
Flight Rules vfr VFR
Wind090° at 18 kt
W.Decomp.*RWY 10: 17.8 kt HW 2.5 kt LCW
W.Rank090° ranks 2
Current wind is above 090° avg. (12.8)
Visibility9999 m
Phenomena:N/A
Clouds:N/A
Expected CloudBase > 2,400 ft AGL from Temp-Dew spread
CeilingNone
Temp15°C (ISA 0)
Dew Point09°C (68% RH)
AAT8.3°C
QNH1019 hPa
Density Alt39 ft
Elevation69 ft
Report Wrong Elevation
Raw Report
GMTT 161800Z 09018KT CAVOK 15/09 Q1019 NOSIG=

Extra information for GMTT:More info

Metar Taf Metar & Taf Last 4 Metars F.Rules Stats Wind Profile Meteogram Temp Stats Airport Information Weather charts Add Link Nearby VenuesMetar ALERT Operation Metar Decoded Social comments